Terminal Aerodrome Forecast
Issued by NWS Jackson, KY

Home | Current Version | Previous Version | Text Only | Print | Product List | Glossary Off
Versions: 1 2 3 4 5 6 7 8 9 10 11 12 13 14 15 16

000
FTUS43 KJKL 232334
TAFLOZ
TAF
KLOZ 232334Z 2400/2424 VRB03KT P6SM BKN150
     FM240600 VRB03KT P6SM SCT250 WS020/20040KT
     FM241400 19008KT P6SM BKN100
     FM241800 20012KT P6SM BKN080=

USA.gov is the U.S. government's official web portal to all federal, state and local government web resources and services.